Time;durP1;ratioP1;P1;durP2;ratioP2;P2;SDS_P1;SDS_P2;PMS_P1;PMS_P2;Temp;Humidity;BMP_temperature;BMP_pressure;BME280_temperature;BME280_humidity;BME280_pressure;Samples;Min_cycle;Max_cycle;Signal;HPM_P1;HPM_P2
2022/01/30 00:01:42;;;;;;;15.25;8.40;;;;;;;;;;5051938;28;20017;-71
2022/01/30 00:04:23;;;;;;;21.23;8.82;;;;;;;;;;5002940;28;20030;-71
2022/01/30 00:06:51;;;;;;;12.27;5.78;;;;;;;;;;5050164;28;20038;-71
2022/01/30 00:09:20;;;;;;;13.82;5.65;;;;;;;;;;5033685;28;20033;-71
2022/01/30 00:11:52;;;;;;;25.60;6.80;;;;;;;;;;5061912;28;20022;-71
2022/01/30 00:14:20;;;;;;;16.90;6.07;;;;;;;;;;5049996;28;20010;-71
2022/01/30 00:16:48;;;;;;;17.20;6.22;;;;;;;;;;5049327;28;20028;-72
2022/01/30 00:19:24;;;;;;;23.80;7.00;;;;;;;;;;5049508;28;20034;-71
2022/01/30 00:22:01;;;;;;;18.92;7.38;;;;;;;;;;5019081;28;20077;-72
2022/01/30 00:24:46;;;;;;;32.38;9.07;;;;;;;;;;5047967;28;20073;-71
2022/01/30 00:27:19;;;;;;;30.67;9.85;;;;;;;;;;5056213;28;20021;-72
2022/01/30 00:29:45;;;;;;;19.58;8.60;;;;;;;;;;5063466;28;20013;-71
2022/01/30 00:32:13;;;;;;;14.52;7.22;;;;;;;;;;5066536;28;20029;-71
2022/01/30 00:34:39;;;;;;;19.10;7.28;;;;;;;;;;5041964;28;20041;-72
2022/01/30 00:37:06;;;;;;;21.73;7.03;;;;;;;;;;5069696;28;20016;-71
2022/01/30 00:39:32;;;;;;;24.73;7.90;;;;;;;;;;5063699;28;20017;-71
2022/01/30 00:41:58;;;;;;;23.55;8.95;;;;;;;;;;5051023;28;20016;-71
2022/01/30 00:44:26;;;;;;;27.35;7.78;;;;;;;;;;5054825;28;20025;-71
2022/01/30 00:46:53;;;;;;;20.27;9.20;;;;;;;;;;5052891;28;20028;-71
2022/01/30 00:49:19;;;;;;;31.23;8.57;;;;;;;;;;5067073;28;20044;-71
2022/01/30 00:51:45;;;;;;;21.33;9.25;;;;;;;;;;5054824;28;20026;-71
2022/01/30 00:54:11;;;;;;;19.83;7.95;;;;;;;;;;5051960;28;20119;-71
2022/01/30 00:56:37;;;;;;;17.88;6.93;;;;;;;;;;5051579;28;20038;-71
2022/01/30 00:59:03;;;;;;;11.38;6.07;;;;;;;;;;5059382;28;20042;-71
2022/01/30 01:01:29;;;;;;;14.07;5.97;;;;;;;;;;5045966;28;20129;-71
2022/01/30 01:03:55;;;;;;;18.80;6.53;;;;;;;;;;5049165;28;20032;-71
2022/01/30 01:06:21;;;;;;;20.90;7.13;;;;;;;;;;5052721;28;20060;-71
2022/01/30 01:08:56;;;;;;;16.75;7.03;;;;;;;;;;5053721;28;20029;-71
2022/01/30 01:24:45;;;;;;;30.48;8.75;;;;;;;;;;5059675;28;20079;-72
2022/01/30 01:27:16;;;;;;;22.90;8.25;;;;;;;;;;5073268;28;20017;-70
2022/01/30 01:29:43;;;;;;;29.98;14.45;;;;;;;;;;5064019;28;20075;-72
2022/01/30 01:32:09;;;;;;;21.90;10.25;;;;;;;;;;5052920;28;20479;-71
2022/01/30 01:34:38;;;;;;;24.25;10.52;;;;;;;;;;5061248;28;20060;-71
2022/01/30 01:37:07;;;;;;;20.80;9.98;;;;;;;;;;5056598;28;20097;-71
2022/01/30 01:39:33;;;;;;;25.88;12.07;;;;;;;;;;5048691;28;20016;-71
2022/01/30 01:41:59;;;;;;;28.05;9.98;;;;;;;;;;5056042;28;20016;-72
2022/01/30 01:44:38;;;;;;;18.45;8.98;;;;;;;;;;5056509;28;20057;-71
2022/01/30 01:47:10;;;;;;;26.40;10.52;;;;;;;;;;5053409;28;20035;-71
2022/01/30 01:49:36;;;;;;;17.52;7.60;;;;;;;;;;5065420;28;20010;-71
2022/01/30 01:52:19;;;;;;;20.30;6.82;;;;;;;;;;5048280;28;20025;-71
2022/01/30 01:55:04;;;;;;;17.30;6.60;;;;;;;;;;5055490;28;20048;-73
2022/01/30 01:58:09;;;;;;;13.23;4.72;;;;;;;;;;5046313;28;20258;-71
2022/01/30 02:01:11;;;;;;;13.85;4.97;;;;;;;;;;5069681;28;20032;-73
2022/01/30 02:03:38;;;;;;;11.57;4.80;;;;;;;;;;5055682;28;20017;-71
2022/01/30 02:06:07;;;;;;;14.38;4.57;;;;;;;;;;5061593;28;20022;-71
2022/01/30 02:08:37;;;;;;;14.63;5.78;;;;;;;;;;5034019;28;20146;-79
2022/01/30 02:26:55;;;;;;;10.98;4.53;;;;;;;;;;5075931;28;20100;-73
2022/01/30 02:29:21;;;;;;;10.88;3.88;;;;;;;;;;5061293;28;20028;-71
2022/01/30 02:31:48;;;;;;;7.65;3.78;;;;;;;;;;5060264;28;20028;-78
2022/01/30 02:34:14;;;;;;;14.32;4.20;;;;;;;;;;5055076;28;20021;-73
2022/01/30 02:36:51;;;;;;;10.10;3.95;;;;;;;;;;5068298;28;20048;-74
2022/01/30 02:39:18;;;;;;;8.07;3.50;;;;;;;;;;5072542;28;20022;-72
2022/01/30 02:41:45;;;;;;;5.40;3.38;;;;;;;;;;5069929;28;20021;-71
2022/01/30 02:44:20;;;;;;;6.22;3.70;;;;;;;;;;5053025;28;20037;-72
2022/01/30 02:46:50;;;;;;;9.07;3.50;;;;;;;;;;5054845;28;20398;-72
2022/01/30 02:51:52;;;;;;;7.47;3.40;;;;;;;;;;5088456;28;20033;-73
2022/01/30 02:54:19;;;;;;;12.20;3.80;;;;;;;;;;5056351;28;20086;-73
2022/01/30 02:56:45;;;;;;;11.18;4.47;;;;;;;;;;5070869;28;20036;-73
2022/01/30 02:59:12;;;;;;;9.13;4.57;;;;;;;;;;5054865;28;20025;-73
2022/01/30 03:01:38;;;;;;;11.15;5.50;;;;;;;;;;5071436;28;20037;-73
2022/01/30 03:04:04;;;;;;;10.40;5.22;;;;;;;;;;5062147;23;20088;-74
2022/01/30 03:06:31;;;;;;;10.27;4.97;;;;;;;;;;5054361;28;20021;-73
2022/01/30 03:08:57;;;;;;;8.18;4.55;;;;;;;;;;5062038;28;20017;-71
2022/01/30 03:11:24;;;;;;;8.55;4.25;;;;;;;;;;5063630;28;20032;-72
2022/01/30 03:13:50;;;;;;;7.90;4.38;;;;;;;;;;5061762;28;20033;-74
2022/01/30 03:16:16;;;;;;;15.50;5.22;;;;;;;;;;5051247;28;20013;-72
2022/01/30 03:18:43;;;;;;;15.95;5.20;;;;;;;;;;5054527;28;20036;-76
2022/01/30 03:21:10;;;;;;;13.10;6.35;;;;;;;;;;5053458;28;20104;-79
2022/01/30 03:23:38;;;;;;;12.07;5.90;;;;;;;;;;5060582;28;20010;-74
2022/01/30 03:26:04;;;;;;;10.80;5.03;;;;;;;;;;5044373;28;20043;-72
2022/01/30 03:28:32;;;;;;;11.55;5.00;;;;;;;;;;5063226;28;20029;-73
2022/01/30 03:31:02;;;;;;;9.10;4.28;;;;;;;;;;5051717;28;20495;-73
2022/01/30 03:33:28;;;;;;;8.60;3.33;;;;;;;;;;5050968;28;20034;-74
2022/01/30 03:35:54;;;;;;;6.47;3.10;;;;;;;;;;5051671;28;20033;-73
2022/01/30 03:38:20;;;;;;;7.10;2.67;;;;;;;;;;5053138;28;20105;-72
2022/01/30 03:40:47;;;;;;;6.72;3.05;;;;;;;;;;5070291;28;20021;-72
2022/01/30 03:43:13;;;;;;;9.35;3.08;;;;;;;;;;5046164;28;20018;-72
2022/01/30 03:45:40;;;;;;;5.80;2.85;;;;;;;;;;5055681;28;20069;-72
2022/01/30 03:48:06;;;;;;;13.02;3.22;;;;;;;;;;5055219;28;20024;-72
2022/01/30 03:50:34;;;;;;;5.63;3.10;;;;;;;;;;5033315;28;20018;-73
2022/01/30 03:53:00;;;;;;;7.38;3.60;;;;;;;;;;5054512;28;20036;-73
2022/01/30 03:55:26;;;;;;;4.63;2.97;;;;;;;;;;5065974;28;20409;-73
2022/01/30 03:58:15;;;;;;;7.57;3.35;;;;;;;;;;5051815;28;20013;-73
2022/01/30 04:00:58;;;;;;;6.95;4.00;;;;;;;;;;4988841;28;20468;-73
2022/01/30 04:06:00;;;;;;;5.65;3.38;;;;;;;;;;5697724;23;20033;-73
2022/01/30 04:08:26;;;;;;;7.75;3.10;;;;;;;;;;5076640;28;20029;-73
2022/01/30 04:10:53;;;;;;;5.03;3.38;;;;;;;;;;5063876;28;20072;-73
2022/01/30 04:13:19;;;;;;;6.68;2.80;;;;;;;;;;5058250;28;20033;-73
2022/01/30 04:15:45;;;;;;;6.80;3.10;;;;;;;;;;5070491;28;20021;-73
2022/01/30 04:18:13;;;;;;;6.80;2.95;;;;;;;;;;5574015;22;20143;-73
2022/01/30 04:20:40;;;;;;;8.23;3.28;;;;;;;;;;5085719;28;20029;-71
2022/01/30 04:23:06;;;;;;;4.53;2.80;;;;;;;;;;5054780;28;20037;-73
2022/01/30 04:25:32;;;;;;;4.28;2.92;;;;;;;;;;5071050;28;20025;-74
2022/01/30 04:27:58;;;;;;;7.50;3.10;;;;;;;;;;5068537;28;20032;-73
2022/01/30 04:33:02;;;;;;;6.30;3.10;;;;;;;;;;5245477;22;19927;-73
2022/01/30 04:35:30;;;;;;;5.70;2.95;;;;;;;;;;5075791;28;20056;-73
2022/01/30 04:57:19;;;;;;;6.90;3.58;;;;;;;;;;5084492;28;20032;-73
2022/01/30 05:07:47;;;;;;;10.27;3.80;;;;;;;;;;5057521;28;20036;-72
2022/01/30 05:10:13;;;;;;;12.65;4.22;;;;;;;;;;5050686;28;20028;-72
2022/01/30 05:12:52;;;;;;;7.07;3.60;;;;;;;;;;5058935;28;20483;-72
2022/01/30 05:18:24;;;;;;;6.25;3.92;;;;;;;;;;5059571;28;20093;-72
2022/01/30 05:21:05;;;;;;;9.95;3.78;;;;;;;;;;5035121;28;20074;-72
2022/01/30 05:23:33;;;;;;;8.32;3.25;;;;;;;;;;5014388;28;20038;-72
2022/01/30 05:26:02;;;;;;;14.30;5.60;;;;;;;;;;5041824;28;20049;-73
2022/01/30 05:28:28;;;;;;;11.77;3.90;;;;;;;;;;5033377;28;20026;-73
2022/01/30 05:30:57;;;;;;;8.23;3.70;;;;;;;;;;5050366;28;20069;-72
2022/01/30 05:33:23;;;;;;;8.52;3.78;;;;;;;;;;5045475;28;20037;-72
2022/01/30 05:35:49;;;;;;;9.23;4.00;;;;;;;;;;5038174;28;20038;-72
2022/01/30 05:38:15;;;;;;;11.27;3.40;;;;;;;;;;5032801;28;20097;-72
2022/01/30 05:40:42;;;;;;;10.10;3.50;;;;;;;;;;5036921;28;20060;-77
2022/01/30 05:43:08;;;;;;;7.15;3.50;;;;;;;;;;5035859;28;20010;-72
2022/01/30 05:45:57;;;;;;;8.97;3.50;;;;;;;;;;5049646;28;20084;-72
2022/01/30 05:48:24;;;;;;;14.07;4.28;;;;;;;;;;5030550;28;20279;-72
2022/01/30 05:50:50;;;;;;;13.57;4.78;;;;;;;;;;5037092;28;20037;-72
2022/01/30 05:53:16;;;;;;;13.43;4.75;;;;;;;;;;5040055;28;20037;-72
2022/01/30 05:55:42;;;;;;;12.00;5.88;;;;;;;;;;5034004;28;20057;-72
2022/01/30 05:58:09;;;;;;;15.80;6.20;;;;;;;;;;5027373;28;20030;-73
2022/01/30 06:00:35;;;;;;;12.25;6.47;;;;;;;;;;5030156;28;20013;-73
2022/01/30 06:03:01;;;;;;;18.83;7.75;;;;;;;;;;5034408;28;20037;-74
2022/01/30 06:05:27;;;;;;;14.18;6.43;;;;;;;;;;5031669;28;20087;-72
2022/01/30 06:07:55;;;;;;;17.63;6.25;;;;;;;;;;5041162;28;20095;-73
2022/01/30 06:10:22;;;;;;;17.75;5.57;;;;;;;;;;5039174;28;20063;-75
2022/01/30 06:12:48;;;;;;;13.90;4.78;;;;;;;;;;5060601;28;20014;-72
2022/01/30 06:15:14;;;;;;;11.23;4.68;;;;;;;;;;5066346;28;20021;-72
2022/01/30 06:17:47;;;;;;;8.43;4.07;;;;;;;;;;5062479;28;20021;-72
2022/01/30 06:20:13;;;;;;;8.20;4.63;;;;;;;;;;5043588;28;20041;-72
2022/01/30 06:22:40;;;;;;;13.27;6.47;;;;;;;;;;5030154;28;20041;-73
2022/01/30 06:25:09;;;;;;;11.90;4.70;;;;;;;;;;5028750;28;20133;-73
2022/01/30 06:27:37;;;;;;;13.20;5.40;;;;;;;;;;5041114;28;20029;-72
2022/01/30 06:30:04;;;;;;;11.43;5.07;;;;;;;;;;5030009;28;20098;-73
2022/01/30 06:32:32;;;;;;;25.90;14.20;;;;;;;;;;5034521;28;20061;-72
2022/01/30 06:34:58;;;;;;;23.05;14.27;;;;;;;;;;5039947;28;20085;-72
2022/01/30 06:37:25;;;;;;;10.77;7.97;;;;;;;;;;5039327;28;20017;-72
2022/01/30 06:39:51;;;;;;;13.00;7.35;;;;;;;;;;5036916;28;20010;-72
2022/01/30 06:42:18;;;;;;;12.60;7.18;;;;;;;;;;5033679;28;20018;-72
2022/01/30 06:44:45;;;;;;;14.10;6.97;;;;;;;;;;5034908;28;20033;-72
2022/01/30 06:47:11;;;;;;;16.13;8.13;;;;;;;;;;5045445;28;20018;-72
2022/01/30 06:49:38;;;;;;;19.67;6.50;;;;;;;;;;5038900;28;20010;-76
2022/01/30 06:52:11;;;;;;;14.13;7.32;;;;;;;;;;5046828;28;20040;-73
2022/01/30 06:54:37;;;;;;;;;;;;;;;;;;5036390;28;20139;-75
2022/01/30 06:57:04;;;;;;;134.57;82.95;;;;;;;;;;5034604;28;19972;-72
2022/01/30 06:59:30;;;;;;;30.38;16.13;;;;;;;;;;5032891;28;20546;-78
2022/01/30 07:01:56;;;;;;;44.40;22.95;;;;;;;;;;5050757;28;20026;-76
2022/01/30 07:04:22;;;;;;;34.42;20.25;;;;;;;;;;5043516;28;20080;-78
2022/01/30 07:07:15;;;;;;;32.03;14.77;;;;;;;;;;5019793;28;20069;-78
2022/01/30 07:10:15;;;;;;;30.95;15.25;;;;;;;;;;4968439;28;20046;-73
2022/01/30 07:12:49;;;;;;;27.48;12.88;;;;;;;;;;4874887;29;20960;-74
2022/01/30 07:15:17;;;;;;;21.65;10.32;;;;;;;;;;4886800;29;20108;-77
2022/01/30 07:17:44;;;;;;;23.08;12.10;;;;;;;;;;4900442;29;20528;-77
2022/01/30 07:20:10;;;;;;;21.63;12.20;;;;;;;;;;4898878;29;20028;-73
2022/01/30 07:22:44;;;;;;;27.52;14.25;;;;;;;;;;4891679;29;20048;-77
2022/01/30 07:25:10;;;;;;;30.10;14.82;;;;;;;;;;4863310;29;20047;-76
2022/01/30 07:27:37;;;;;;;24.83;13.30;;;;;;;;;;4900081;29;20077;-72
2022/01/30 07:30:06;;;;;;;22.23;11.95;;;;;;;;;;4895744;29;20045;-73
2022/01/30 07:32:43;;;;;;;19.15;10.23;;;;;;;;;;4886750;29;20819;-77
2022/01/30 07:35:10;;;;;;;21.35;9.30;;;;;;;;;;4883286;29;20045;-72
2022/01/30 07:37:58;;;;;;;13.95;7.25;;;;;;;;;;4898525;29;20067;-80
2022/01/30 07:40:37;;;;;;;;;;;;;;;;;;;;;
2022/01/30 07:43:03;;;;;;;10.48;6.40;;;;;;;;;;4853602;29;20051;-82
2022/01/30 07:45:29;;;;;;;13.65;7.10;;;;;;;;;;4855047;29;20979;-76
2022/01/30 07:47:55;;;;;;;10.07;5.65;;;;;;;;;;4929040;28;20042;-79
2022/01/30 07:50:34;;;;;;;9.93;5.38;;;;;;;;;;4998748;28;20026;-76
2022/01/30 07:53:00;;;;;;;13.95;5.88;;;;;;;;;;5035243;28;20048;-76
2022/01/30 07:55:26;;;;;;;10.45;5.22;;;;;;;;;;5038313;28;20547;-72
2022/01/30 07:58:17;;;;;;;16.75;9.45;;;;;;;;;;5039655;28;20029;-79
2022/01/30 08:00:43;;;;;;;11.32;6.50;;;;;;;;;;5036625;28;20022;-74
2022/01/30 08:03:10;;;;;;;18.35;8.43;;;;;;;;;;5032273;28;20030;-77
2022/01/30 08:05:44;;;;;;;14.35;8.25;;;;;;;;;;5028572;28;20060;-70
2022/01/30 08:08:47;;;;;;;15.43;9.23;;;;;;;;;;5020820;28;20037;-78
2022/01/30 08:11:16;;;;;;;16.63;9.77;;;;;;;;;;5027962;28;20028;-73
2022/01/30 08:13:49;;;;;;;12.65;6.72;;;;;;;;;;5019335;28;20040;-75
2022/01/30 08:16:18;;;;;;;7.82;5.07;;;;;;;;;;5034489;28;20043;-72
2022/01/30 08:18:44;;;;;;;9.63;4.78;;;;;;;;;;5038294;28;20093;-72
2022/01/30 08:21:10;;;;;;;7.97;4.55;;;;;;;;;;5016112;28;20061;-71
2022/01/30 08:23:56;;;;;;;;;;;;;;;;;;;;;
2022/01/30 08:26:48;;;;;;;9.90;5.10;;;;;;;;;;5043563;28;20141;-71
2022/01/30 08:29:32;;;;;;;11.88;5.85;;;;;;;;;;5058686;28;20403;-72
2022/01/30 08:32:11;;;;;;;10.35;5.05;;;;;;;;;;5014610;28;20037;-72
2022/01/30 08:34:52;;;;;;;8.23;4.38;;;;;;;;;;5026935;28;20022;-79
2022/01/30 08:37:31;;;;;;;8.47;5.50;;;;;;;;;;5043378;28;20021;-72
2022/01/30 08:39:57;;;;;;;16.85;5.07;;;;;;;;;;5037223;28;20287;-71
2022/01/30 08:42:23;;;;;;;28.13;13.95;;;;;;;;;;5034993;28;20934;-72
2022/01/30 08:44:49;;;;;;;64.00;43.90;;;;;;;;;;5033257;28;20038;-69
2022/01/30 08:47:15;;;;;;;21.35;16.67;;;;;;;;;;5032705;28;20036;-70
2022/01/30 08:49:41;;;;;;;16.77;7.53;;;;;;;;;;5027527;28;20036;-70
2022/01/30 08:52:07;;;;;;;10.48;6.40;;;;;;;;;;5029035;28;20057;-73
2022/01/30 08:54:33;;;;;;;13.82;7.95;;;;;;;;;;5035663;28;20021;-75
2022/01/30 08:59:52;;;;;;;11.88;6.43;;;;;;;;;;5028661;28;20161;-75
2022/01/30 09:02:22;;;;;;;15.38;6.65;;;;;;;;;;5026184;28;20017;-74
2022/01/30 09:05:12;;;;;;;20.13;12.88;;;;;;;;;;5052570;28;20032;-71
2022/01/30 09:08:08;;;;;;;20.95;11.48;;;;;;;;;;5030615;28;20072;-70
2022/01/30 09:10:38;;;;;;;15.20;7.22;;;;;;;;;;5021155;28;20038;-82
2022/01/30 09:13:05;;;;;;;14.43;7.85;;;;;;;;;;5030227;28;20042;-71
2022/01/30 09:15:42;;;;;;;20.13;8.27;;;;;;;;;;5025336;28;20037;-78
2022/01/30 09:18:40;;;;;;;;;;;;;;;;;;;;;
2022/01/30 09:21:22;;;;;;;17.25;8.18;;;;;;;;;;4959146;29;20034;-78
2022/01/30 09:24:07;;;;;;;34.13;17.48;;;;;;;;;;4965384;29;20026;-75
2022/01/30 09:26:34;;;;;;;21.08;8.98;;;;;;;;;;4961456;29;20655;-73
2022/01/30 09:29:00;;;;;;;19.88;9.98;;;;;;;;;;4973995;28;20179;-75
2022/01/30 09:31:26;;;;;;;14.43;9.38;;;;;;;;;;4970649;29;20051;-73
2022/01/30 09:33:55;;;;;;;17.45;9.32;;;;;;;;;;4973171;29;20051;-73
2022/01/30 09:36:41;;;;;;;15.00;7.90;;;;;;;;;;4924277;28;20029;-74
2022/01/30 09:39:24;;;;;;;10.77;6.35;;;;;;;;;;4941187;28;20051;-75
2022/01/30 09:42:25;;;;;;;12.98;6.88;;;;;;;;;;4963010;28;20104;-71
2022/01/30 09:44:52;;;;;;;19.13;10.10;;;;;;;;;;4928116;29;20142;-75
2022/01/30 09:47:34;;;;;;;18.45;8.90;;;;;;;;;;4957087;29;20027;-77
2022/01/30 09:50:00;;;;;;;16.98;8.32;;;;;;;;;;4951101;28;20071;-75
2022/01/30 09:52:36;;;;;;;15.20;7.65;;;;;;;;;;5024255;28;20021;-72
2022/01/30 09:55:03;;;;;;;35.80;22.35;;;;;;;;;;5022846;28;20033;-74
2022/01/30 09:57:29;;;;;;;22.88;11.75;;;;;;;;;;5005956;28;20030;-77
2022/01/30 10:00:13;;;;;;;22.52;7.35;;;;;;;;;;5011890;28;20019;-76
2022/01/30 10:02:43;;;;;;;13.65;7.47;;;;;;;;;;5042603;28;20061;-74
2022/01/30 10:05:18;;;;;;;18.95;7.78;;;;;;;;;;5010176;28;20057;-71
2022/01/30 10:08:18;;;;;;;17.83;8.65;;;;;;;;;;5029856;28;20227;-71
2022/01/30 10:17:42;;;;;;;12.73;6.83;;;;;;;;;;5197207;23;20157;-73
2022/01/30 10:20:12;;;;;;;17.63;7.15;;;;;;;;;;5054270;28;20032;-71
2022/01/30 10:22:56;;;;;;;15.02;7.60;;;;;;;;;;5068936;28;20020;-72
2022/01/30 10:25:26;;;;;;;13.65;7.55;;;;;;;;;;5049422;28;20032;-71
2022/01/30 10:28:13;;;;;;;16.65;8.80;;;;;;;;;;5055252;28;20021;-71
2022/01/30 10:31:02;;;;;;;12.95;7.95;;;;;;;;;;5048782;28;20902;-71
2022/01/30 10:33:45;;;;;;;22.17;9.43;;;;;;;;;;4951929;28;20095;-73
2022/01/30 10:36:12;;;;;;;15.05;6.80;;;;;;;;;;4970610;28;20035;-77
2022/01/30 10:38:53;;;;;;;15.30;7.93;;;;;;;;;;4958493;28;20146;-71
2022/01/30 10:41:22;;;;;;;11.82;6.85;;;;;;;;;;4958680;28;20035;-75
2022/01/30 10:44:03;;;;;;;15.52;8.85;;;;;;;;;;4962236;28;20027;-71
2022/01/30 10:46:51;;;;;;;17.65;9.50;;;;;;;;;;4926251;29;20076;-71
2022/01/30 10:52:25;;;;;;;14.38;7.03;;;;;;;;;;4877979;29;20037;-72
2022/01/30 10:55:08;;;;;;;16.42;7.63;;;;;;;;;;4877433;29;20141;-76
2022/01/30 10:57:41;;;;;;;17.60;8.13;;;;;;;;;;4864826;29;20049;-71
2022/01/30 11:00:08;;;;;;;15.13;8.82;;;;;;;;;;4941149;23;20089;-73
2022/01/30 11:02:38;;;;;;;16.48;8.82;;;;;;;;;;5059804;28;20038;-74
2022/01/30 11:17:24;;;;;;;15.95;9.40;;;;;;;;;;4858250;29;20076;-72
2022/01/30 11:20:13;;;;;;;16.13;8.05;;;;;;;;;;4814253;29;20058;-71
2022/01/30 11:22:39;;;;;;;16.08;8.30;;;;;;;;;;4809966;29;20087;-72
2022/01/30 11:25:07;;;;;;;14.95;8.88;;;;;;;;;;4816001;29;20039;-72
2022/01/30 11:27:34;;;;;;;14.13;8.60;;;;;;;;;;4822254;29;20045;-73
2022/01/30 11:30:09;;;;;;;13.95;7.93;;;;;;;;;;4803463;29;20074;-70
2022/01/30 11:32:35;;;;;;;15.63;10.35;;;;;;;;;;4809978;29;20035;-73
2022/01/30 11:35:16;;;;;;;23.52;9.27;;;;;;;;;;4805412;29;20063;-74
2022/01/30 11:38:27;;;;;;;12.65;7.30;;;;;;;;;;4793322;29;20035;-71
2022/01/30 11:41:13;;;;;;;14.07;6.80;;;;;;;;;;4792911;29;20088;-72
2022/01/30 11:43:39;;;;;;;15.55;7.25;;;;;;;;;;4794656;29;20039;-70
2022/01/30 11:46:25;;;;;;;12.77;6.90;;;;;;;;;;4797504;29;20048;-70
2022/01/30 11:49:32;;;;;;;15.35;6.80;;;;;;;;;;4832293;29;20031;-73
2022/01/30 11:52:44;;;;;;;29.45;15.57;;;;;;;;;;4792322;29;20019;-73
2022/01/30 11:55:38;;;;;;;17.25;8.00;;;;;;;;;;4940798;28;20113;-72
2022/01/30 12:04:06;;;;;;;11.82;6.63;;;;;;;;;;5623172;23;20149;-77
2022/01/30 12:09:31;;;;;;;12.07;6.70;;;;;;;;;;5676397;23;20069;-73
2022/01/30 12:11:58;;;;;;;12.38;6.53;;;;;;;;;;5030519;28;20024;-74
2022/01/30 12:22:16;;;;;;;10.52;6.57;;;;;;;;;;5085965;22;20043;-73
2022/01/30 12:35:08;;;;;;;10.40;5.72;;;;;;;;;;5326098;23;20057;-79
2022/01/30 12:37:35;;;;;;;32.65;20.77;;;;;;;;;;5027060;28;20017;-78
2022/01/30 12:40:10;;;;;;;67.85;50.47;;;;;;;;;;5026372;28;20033;-77
2022/01/30 12:42:38;;;;;;;18.98;11.18;;;;;;;;;;5013982;28;20049;-79
2022/01/30 12:45:06;;;;;;;12.57;7.80;;;;;;;;;;5026978;28;20053;-76
2022/01/30 12:47:50;;;;;;;16.70;7.25;;;;;;;;;;5031152;28;20030;-78
2022/01/30 12:50:17;;;;;;;11.43;6.10;;;;;;;;;;5029708;28;20040;-74
2022/01/30 12:52:48;;;;;;;16.30;6.30;;;;;;;;;;5037842;28;20038;-72
2022/01/30 12:55:17;;;;;;;12.23;6.82;;;;;;;;;;5028350;28;20018;-81
2022/01/30 12:57:44;;;;;;;16.00;7.97;;;;;;;;;;5021832;28;20032;-80
2022/01/30 13:00:12;;;;;;;16.60;6.88;;;;;;;;;;5024432;28;20105;-77
2022/01/30 13:02:38;;;;;;;11.85;7.25;;;;;;;;;;5000042;28;20037;-78
2022/01/30 13:05:05;;;;;;;12.30;6.28;;;;;;;;;;5022404;28;20057;-75
2022/01/30 13:07:33;;;;;;;10.55;6.60;;;;;;;;;;5033312;28;20037;-76
2022/01/30 13:10:04;;;;;;;11.27;3.90;;;;;;;;;;5008258;28;20126;-77
2022/01/30 13:12:31;;;;;;;10.75;3.47;;;;;;;;;;4996281;28;20025;-78
2022/01/30 13:14:57;;;;;;;7.40;3.70;;;;;;;;;;4986753;28;20039;-76
2022/01/30 13:17:30;;;;;;;7.18;3.40;;;;;;;;;;4999428;28;20117;-79
2022/01/30 13:19:56;;;;;;;10.50;4.57;;;;;;;;;;4997135;28;20049;-76
2022/01/30 13:22:34;;;;;;;8.52;3.40;;;;;;;;;;5014146;28;20042;-77
2022/01/30 13:25:01;;;;;;;12.57;4.70;;;;;;;;;;4994074;28;20039;-73
2022/01/30 13:27:30;;;;;;;9.73;4.55;;;;;;;;;;5015470;28;20026;-74
2022/01/30 13:30:06;;;;;;;15.20;3.90;;;;;;;;;;5007422;28;20045;-73
2022/01/30 13:32:32;;;;;;;10.27;4.60;;;;;;;;;;5015139;28;20014;-75
2022/01/30 13:34:58;;;;;;;17.00;4.50;;;;;;;;;;5002171;28;20073;-74
2022/01/30 13:37:25;;;;;;;8.77;4.15;;;;;;;;;;5012940;28;20013;-73
2022/01/30 13:48:05;;;;;;;7.95;3.85;;;;;;;;;;5027326;28;20100;-73
2022/01/30 13:50:39;;;;;;;9.10;3.42;;;;;;;;;;5030662;28;20034;-74
2022/01/30 13:53:10;;;;;;;9.63;4.00;;;;;;;;;;5026260;28;20037;-73
2022/01/30 13:56:01;;;;;;;7.53;3.25;;;;;;;;;;5038648;28;20022;-73
2022/01/30 13:58:47;;;;;;;10.70;3.90;;;;;;;;;;5035595;28;20033;-74
2022/01/30 14:01:17;;;;;;;10.80;4.32;;;;;;;;;;5019719;28;20037;-74
2022/01/30 14:03:47;;;;;;;13.30;6.55;;;;;;;;;;5014373;28;20038;-73
2022/01/30 14:06:29;;;;;;;8.98;3.08;;;;;;;;;;5036354;28;20016;-73
2022/01/30 14:08:58;;;;;;;7.70;3.80;;;;;;;;;;5021662;28;20022;-72
2022/01/30 14:11:31;;;;;;;7.88;4.15;;;;;;;;;;5041910;28;20033;-75
2022/01/30 14:13:59;;;;;;;;;;;;;;;;;;5036673;28;20034;-76
2022/01/30 14:16:35;;;;;;;15.27;5.55;;;;;;;;;;5030807;28;19894;-76
2022/01/30 14:19:01;;;;;;;8.85;4.00;;;;;;;;;;5033900;28;20033;-76
2022/01/30 14:21:31;;;;;;;11.80;3.63;;;;;;;;;;5029580;28;20037;-76
2022/01/30 14:24:36;;;;;;;5.70;3.35;;;;;;;;;;5030591;28;20112;-78
2022/01/30 14:27:58;;;;;;;10.18;5.07;;;;;;;;;;4996773;28;20019;-78
2022/01/30 14:30:40;;;;;;;9.23;3.90;;;;;;;;;;4993238;28;20037;-78
2022/01/30 14:33:23;;;;;;;8.60;3.75;;;;;;;;;;5000042;28;20038;-77
2022/01/30 14:36:03;;;;;;;8.68;3.45;;;;;;;;;;4973333;28;20046;-78
2022/01/30 14:38:42;;;;;;;7.10;3.92;;;;;;;;;;4958658;29;20432;-78
2022/01/30 14:41:09;;;;;;;8.07;3.97;;;;;;;;;;4976735;28;20035;-76
2022/01/30 14:43:39;;;;;;;5.45;3.35;;;;;;;;;;4968643;29;20063;-77
2022/01/30 14:46:05;;;;;;;9.40;3.38;;;;;;;;;;4975649;28;20039;-77
2022/01/30 14:48:31;;;;;;;13.05;3.55;;;;;;;;;;4966864;28;20043;-76
2022/01/30 14:50:57;;;;;;;6.75;3.30;;;;;;;;;;4958831;28;20043;-73
2022/01/30 14:53:23;;;;;;;8.93;3.90;;;;;;;;;;4954463;28;20170;-76
2022/01/30 14:55:54;;;;;;;9.93;4.65;;;;;;;;;;4954746;29;20031;-74
2022/01/30 14:58:22;;;;;;;13.75;3.65;;;;;;;;;;4977662;28;20031;-76
2022/01/30 15:00:55;;;;;;;8.50;4.32;;;;;;;;;;4984774;28;20050;-73
2022/01/30 15:03:22;;;;;;;30.23;10.40;;;;;;;;;;4985698;28;20047;-73
2022/01/30 15:05:48;;;;;;;15.63;5.07;;;;;;;;;;4986616;28;20038;-80
2022/01/30 15:08:26;;;;;;;19.83;11.57;;;;;;;;;;4989269;28;20488;-75
2022/01/30 15:11:02;;;;;;;8.70;4.90;;;;;;;;;;4957622;28;20042;-76
2022/01/30 15:13:29;;;;;;;11.07;5.10;;;;;;;;;;5001721;28;20061;-74
2022/01/30 15:15:57;;;;;;;12.82;6.05;;;;;;;;;;4987880;28;20015;-78
2022/01/30 15:18:34;;;;;;;15.38;7.63;;;;;;;;;;4989932;28;20011;-76
2022/01/30 15:21:00;;;;;;;13.20;5.85;;;;;;;;;;4991687;28;20053;-75
2022/01/30 15:23:28;;;;;;;22.13;8.02;;;;;;;;;;4979718;28;20093;-72
2022/01/30 15:25:54;;;;;;;12.75;4.18;;;;;;;;;;4985260;28;20023;-79
2022/01/30 15:28:51;;;;;;;16.05;5.05;;;;;;;;;;4974654;28;20042;-79
2022/01/30 15:31:27;;;;;;;21.00;6.75;;;;;;;;;;4982167;28;20030;-80
2022/01/30 15:33:53;;;;;;;21.40;6.60;;;;;;;;;;4967636;28;20163;-77
2022/01/30 15:36:20;;;;;;;20.48;5.68;;;;;;;;;;4999684;28;20091;-76
2022/01/30 15:38:46;;;;;;;25.70;10.48;;;;;;;;;;5009024;28;20025;-78
2022/01/30 15:41:13;;;;;;;25.67;4.55;;;;;;;;;;5005357;28;20068;-75
2022/01/30 15:43:50;;;;;;;17.92;5.18;;;;;;;;;;5013033;28;20030;-73
2022/01/30 15:49:10;;;;;;;15.93;5.25;;;;;;;;;;5013597;28;20109;-74
2022/01/30 15:51:41;;;;;;;19.98;4.05;;;;;;;;;;5013423;28;20026;-73
2022/01/30 15:54:12;;;;;;;17.58;4.25;;;;;;;;;;5003356;28;20046;-75
2022/01/30 15:56:41;;;;;;;17.00;5.88;;;;;;;;;;5012137;28;20038;-76
2022/01/30 15:59:32;;;;;;;20.52;4.35;;;;;;;;;;4987225;28;20040;-73
2022/01/30 16:02:03;;;;;;;17.25;5.15;;;;;;;;;;4976176;28;20102;-72
2022/01/30 16:04:29;;;;;;;14.75;5.07;;;;;;;;;;4953866;28;20062;-73
2022/01/30 16:06:58;;;;;;;16.80;3.90;;;;;;;;;;4961074;28;20082;-75
2022/01/30 16:09:33;;;;;;;20.05;4.35;;;;;;;;;;4962926;28;20031;-79
2022/01/30 16:15:35;;;;;;;25.42;9.60;;;;;;;;;;4965718;28;20030;-75
2022/01/30 16:15:36;;;;;;;13.45;4.32;;;;;;;;;;4885837;29;20040;-79
2022/01/30 16:18:06;;;;;;;14.52;3.80;;;;;;;;;;4880997;29;20052;-77
2022/01/30 16:20:33;;;;;;;15.75;3.88;;;;;;;;;;4891415;29;20665;-78
2022/01/30 16:23:03;;;;;;;10.48;3.83;;;;;;;;;;4889297;29;20044;-80
2022/01/30 16:25:30;;;;;;;8.27;3.35;;;;;;;;;;4889513;29;20149;-78
2022/01/30 16:27:56;;;;;;;17.05;4.75;;;;;;;;;;4877941;29;20037;-72
2022/01/30 16:30:25;;;;;;;12.10;4.22;;;;;;;;;;4886052;29;20052;-76
2022/01/30 16:32:58;;;;;;;15.13;5.43;;;;;;;;;;4863643;29;20049;-79
2022/01/30 16:35:24;;;;;;;14.32;3.67;;;;;;;;;;4875774;29;20052;-71
2022/01/30 16:37:51;;;;;;;14.35;4.22;;;;;;;;;;4888497;29;20044;-74
2022/01/30 16:40:17;;;;;;;15.95;3.78;;;;;;;;;;4909514;29;20108;-72
2022/01/30 16:43:10;;;;;;;17.35;5.03;;;;;;;;;;4913581;29;20044;-71
2022/01/30 16:48:29;;;;;;;18.10;4.53;;;;;;;;;;4852894;29;20038;-78
2022/01/30 16:50:59;;;;;;;13.68;5.55;;;;;;;;;;4857991;29;20098;-75
2022/01/30 16:53:43;;;;;;;29.85;7.90;;;;;;;;;;4905109;29;20071;-79
2022/01/30 16:56:12;;;;;;;494.63;250.50;;;;;;;;;;4904253;29;20132;-78
2022/01/30 16:58:45;;;;;;;99.60;47.92;;;;;;;;;;4904733;29;20036;-76
2022/01/30 17:01:40;;;;;;;24.02;9.07;;;;;;;;;;4916546;29;20044;-80
2022/01/30 17:04:18;;;;;;;16.52;6.88;;;;;;;;;;4905031;29;20037;-78
2022/01/30 17:06:44;;;;;;;19.42;7.22;;;;;;;;;;4910503;29;20120;-74
2022/01/30 17:12:31;;;;;;;14.65;7.00;;;;;;;;;;4837059;29;20030;-76
2022/01/30 17:14:57;;;;;;;18.08;7.22;;;;;;;;;;4839052;29;20137;-74
2022/01/30 17:17:40;;;;;;;;;;;;;;;;;;;;;
2022/01/30 17:20:10;;;;;;;18.38;5.65;;;;;;;;;;4809897;29;20078;-74
2022/01/30 17:22:38;;;;;;;18.33;5.57;;;;;;;;;;4849530;29;20065;-75